Pierce, TX (77467)

7:11 PM CDT on July 24, 2014 (GMT -0500)
Wharton Regional (KARM) Elev 102 ft | 29.25 °N, 96.15 °W | Change Station

Current weather conditions updated 16 minutes ago

Clear
Clear
86 °F
Feels Like 94 °F
N
9
Wind Variable Wind from SSE

Tomorrow is forecast to be nearly the same temperature as today.

Today
High -- | Low -- °F
--% Chance of Precip.
Yesterday
High -- | Low -- °F
Precip. -- in
6:40 AM 8:21 PM
Waning Crescent, 3% visible
Pressure 29.94 in
Visibility 10.0 miles
Clouds Clear
Heat Index 94 °F
Dew Point 74 °F
Humidity 69%
Rainfall 0.00 in
Snow Depth Not available.
UV 1 out of 12
Pollen 3.80 out of 12
Air Quality Not available.
Flu Activity Not available.
METAR KARM 242355Z AUTO 15008KT 10SM CLR 30/24 A2994 RMK AO2 T02990236 10340 20299

More Conditions Fewer Conditions

Pressure 29.94 in
Visibility 10.0 miles
Clouds Clear
Heat Index 94 °F
Dew Point 74 °F
Humidity 69%
Rainfall 0.00 in
Snow Depth Not available.
UV 1 out of 12
Pollen 3.80 out of 12
Air Quality Not available.
Flu Activity Not available.
METAR KARM 242355Z AUTO 15008KT 10SM CLR 30/24 A2994 RMK AO2 T02990236 10340 20299

More Conditions Fewer Conditions

10-Day Weather Forecast

Almanac

Astronomy

Jul. 24, 2014 Rise Set
Actual Time 6:40 AM CDT 8:21 PM CDT
Civil Twilight 6:14 AM CDT 8:47 PM CDT
Nautical Twilight 5:43 AM CDT 9:19 PM CDT
Astronomical Twilight 5:09 AM CDT 9:52 PM CDT
Moon 4:47 AM CDT (7/24) 6:39 PM CDT (7/24)
Length of Visible Light 14h 33m
Length of Day
13h 41m
Tomorrow will be 1m 8s shorter.
Waning Crescent, 3% of the Moon is Illuminated
Today
Waning Crescent
Jul 26
New
Aug 3
First Quarter
Aug 10
Full
Aug 17
Last Quarter

Today's Extremes

State Highs State Lows

Community

WunderPhotos

Upload Photos

1,737,169 photos uploaded!

Nearby

Snow Depth

Station Depth Elevation
No new snow has been reported.

Earthquake Activity

City Distance Mag. Time & Date
No recent earthquake activity has been reported nearby.
Minimum magnitude displayed is 2.5.

Coastal Water Temperatures

Place Temperature
No Stations Reporting

Nearby Weather Stations

Station Location Temp. Heat Index Dew Point Humidity Wind Precip. Elev Updated Type
LCRA COLORADO RIVER AT WHARTON TX, Hungerford, TX 93 °F 99 °F 70 °F 47% North  at  - 0.00 in / hr 110 ft 4:26 PM CDT MADIS
FM1160, Louise, TX 88.2 °F 99 °F 75 °F 66% North  at  - 0.00 in / hr 105 ft 7:03 PM CDT Normal
MesoWest EBRNRD , Lissie, TX 95 °F 91 °F - - North  at  - 0.00 in / hr 125 ft 5:30 PM CDT MADIS
Melvin Court, Needville, TX 88.3 °F 102 °F 78 °F 71% ESE  at  4.7 mph - / hr 88 ft 6:56 PM CDT Normal

Show More Stations Show Fewer Stations